Terminal Aerodrome Forecast
Issued by NWS Lake Charles, LA

Home | Current Version | Previous Version | Text Only | Print | Product List | Glossary On
Versions: 1 2 3 4 5 6 7 8 9 10 11 12 13 14 15 16 17 18 19 20 21
352
FTUS44 KLCH 200311 AAB
TAFARA
TAF AMD
KARA 200311Z 2003/2024 18003KT P6SM SCT050
      TEMPO 2006/2008 4SM BR SCT007
     FM200800 22004KT 1SM BR OVC003
     FM201500 22006KT 4SM BR BKN007 OVC020
     FM201600 22009KT P6SM SCT025 SCT250=

USA.gov is the U.S. government's official web portal to all federal, state and local government web resources and services.